sensor_id;sensor_type;location;lat;lon;timestamp;P1;durP1;ratioP1;P2;durP2;ratioP2
57313;SDS011;53202;50.976;18.216;2022-09-13T00:00:38;14.10;;;11.80;;
57313;SDS011;53202;50.976;18.216;2022-09-13T00:03:06;14.10;;;11.40;;
57313;SDS011;53202;50.976;18.216;2022-09-13T00:05:33;19.10;;;12.00;;
57313;SDS011;53202;50.976;18.216;2022-09-13T00:08:00;17.80;;;11.60;;
57313;SDS011;53202;50.976;18.216;2022-09-13T00:10:26;14.60;;;11.70;;
57313;SDS011;53202;50.976;18.216;2022-09-13T00:12:52;18.30;;;11.20;;
57313;SDS011;53202;50.976;18.216;2022-09-13T00:15:19;16.00;;;12.10;;
57313;SDS011;53202;50.976;18.216;2022-09-13T00:17:45;15.20;;;11.30;;
57313;SDS011;53202;50.976;18.216;2022-09-13T00:20:13;19.00;;;11.90;;
57313;SDS011;53202;50.976;18.216;2022-09-13T00:22:39;13.60;;;10.90;;
57313;SDS011;53202;50.976;18.216;2022-09-13T00:25:05;16.20;;;11.70;;
57313;SDS011;53202;50.976;18.216;2022-09-13T00:27:32;19.10;;;10.80;;
57313;SDS011;53202;50.976;18.216;2022-09-13T00:29:59;19.30;;;10.30;;
57313;SDS011;53202;50.976;18.216;2022-09-13T00:32:25;20.90;;;12.10;;
57313;SDS011;53202;50.976;18.216;2022-09-13T00:34:52;14.20;;;11.50;;
57313;SDS011;53202;50.976;18.216;2022-09-13T00:37:19;15.70;;;11.40;;
57313;SDS011;53202;50.976;18.216;2022-09-13T00:39:45;19.60;;;11.70;;
57313;SDS011;53202;50.976;18.216;2022-09-13T00:42:11;20.00;;;12.70;;
57313;SDS011;53202;50.976;18.216;2022-09-13T00:44:56;17.40;;;12.30;;
57313;SDS011;53202;50.976;18.216;2022-09-13T00:47:25;14.90;;;11.10;;
57313;SDS011;53202;50.976;18.216;2022-09-13T00:52:45;16.00;;;10.80;;
57313;SDS011;53202;50.976;18.216;2022-09-13T00:55:24;13.90;;;12.00;;
57313;SDS011;53202;50.976;18.216;2022-09-13T00:57:52;17.70;;;11.60;;
57313;SDS011;53202;50.976;18.216;2022-09-13T01:00:21;17.40;;;12.50;;
57313;SDS011;53202;50.976;18.216;2022-09-13T01:02:48;16.70;;;13.00;;
57313;SDS011;53202;50.976;18.216;2022-09-13T01:05:19;19.10;;;12.30;;
57313;SDS011;53202;50.976;18.216;2022-09-13T01:07:48;17.90;;;13.30;;
57313;SDS011;53202;50.976;18.216;2022-09-13T01:10:15;15.90;;;12.60;;
57313;SDS011;53202;50.976;18.216;2022-09-13T01:12:51;17.80;;;13.20;;
57313;SDS011;53202;50.976;18.216;2022-09-13T01:15:21;16.60;;;13.50;;
57313;SDS011;53202;50.976;18.216;2022-09-13T01:17:48;15.90;;;13.00;;
57313;SDS011;53202;50.976;18.216;2022-09-13T01:20:15;16.90;;;13.30;;
57313;SDS011;53202;50.976;18.216;2022-09-13T01:28:48;17.00;;;13.30;;
57313;SDS011;53202;50.976;18.216;2022-09-13T01:31:31;15.90;;;13.50;;
57313;SDS011;53202;50.976;18.216;2022-09-13T01:34:15;15.30;;;13.70;;
57313;SDS011;53202;50.976;18.216;2022-09-13T01:37:09;22.10;;;15.10;;
57313;SDS011;53202;50.976;18.216;2022-09-13T01:39:51;22.60;;;12.70;;
57313;SDS011;53202;50.976;18.216;2022-09-13T01:42:27;25.50;;;13.00;;
57313;SDS011;53202;50.976;18.216;2022-09-13T01:45:20;15.00;;;12.70;;
57313;SDS011;53202;50.976;18.216;2022-09-13T01:48:16;18.90;;;13.20;;
57313;SDS011;53202;50.976;18.216;2022-09-13T01:50:58;18.60;;;12.70;;
57313;SDS011;53202;50.976;18.216;2022-09-13T01:56:25;22.70;;;13.60;;
57313;SDS011;53202;50.976;18.216;2022-09-13T01:58:55;15.70;;;12.50;;
57313;SDS011;53202;50.976;18.216;2022-09-13T02:01:30;13.60;;;12.10;;
57313;SDS011;53202;50.976;18.216;2022-09-13T02:04:05;15.20;;;11.90;;
57313;SDS011;53202;50.976;18.216;2022-09-13T02:06:36;21.10;;;12.00;;
57313;SDS011;53202;50.976;18.216;2022-09-13T02:09:08;15.10;;;13.00;;
57313;SDS011;53202;50.976;18.216;2022-09-13T02:14:06;16.00;;;13.70;;
57313;SDS011;53202;50.976;18.216;2022-09-13T02:16:37;16.30;;;12.50;;
57313;SDS011;53202;50.976;18.216;2022-09-13T02:22:06;15.00;;;11.80;;
57313;SDS011;53202;50.976;18.216;2022-09-13T02:24:35;14.50;;;11.10;;
57313;SDS011;53202;50.976;18.216;2022-09-13T02:27:05;15.10;;;12.20;;
57313;SDS011;53202;50.976;18.216;2022-09-13T02:29:35;19.10;;;11.60;;
57313;SDS011;53202;50.976;18.216;2022-09-13T02:32:04;13.80;;;10.80;;
57313;SDS011;53202;50.976;18.216;2022-09-13T02:34:37;13.10;;;11.30;;
57313;SDS011;53202;50.976;18.216;2022-09-13T02:37:05;15.40;;;10.90;;
57313;SDS011;53202;50.976;18.216;2022-09-13T02:39:33;14.70;;;10.90;;
57313;SDS011;53202;50.976;18.216;2022-09-13T02:42:18;13.20;;;10.60;;
57313;SDS011;53202;50.976;18.216;2022-09-13T02:44:45;15.20;;;12.40;;
57313;SDS011;53202;50.976;18.216;2022-09-13T02:47:33;18.00;;;15.50;;
57313;SDS011;53202;50.976;18.216;2022-09-13T02:53:22;34.60;;;23.20;;
57313;SDS011;53202;50.976;18.216;2022-09-13T02:56:19;33.60;;;25.60;;
57313;SDS011;53202;50.976;18.216;2022-09-13T02:58:52;34.70;;;25.20;;
57313;SDS011;53202;50.976;18.216;2022-09-13T03:01:22;27.70;;;22.90;;
57313;SDS011;53202;50.976;18.216;2022-09-13T03:03:50;27.70;;;22.20;;
57313;SDS011;53202;50.976;18.216;2022-09-13T03:06:22;25.00;;;21.10;;
57313;SDS011;53202;50.976;18.216;2022-09-13T03:08:49;22.00;;;19.30;;
57313;SDS011;53202;50.976;18.216;2022-09-13T03:11:21;26.30;;;20.00;;
57313;SDS011;53202;50.976;18.216;2022-09-13T03:16:52;21.20;;;17.30;;
57313;SDS011;53202;50.976;18.216;2022-09-13T03:19:47;20.20;;;17.10;;
57313;SDS011;53202;50.976;18.216;2022-09-13T03:22:26;31.80;;;18.20;;
57313;SDS011;53202;50.976;18.216;2022-09-13T03:28:16;21.50;;;17.30;;
57313;SDS011;53202;50.976;18.216;2022-09-13T03:30:52;23.40;;;16.90;;
57313;SDS011;53202;50.976;18.216;2022-09-13T03:33:28;22.20;;;16.80;;
57313;SDS011;53202;50.976;18.216;2022-09-13T03:36:00;23.60;;;16.60;;
57313;SDS011;53202;50.976;18.216;2022-09-13T03:38:36;22.60;;;19.10;;
57313;SDS011;53202;50.976;18.216;2022-09-13T03:41:08;24.20;;;19.30;;
57313;SDS011;53202;50.976;18.216;2022-09-13T03:43:40;23.50;;;18.90;;
57313;SDS011;53202;50.976;18.216;2022-09-13T03:46:11;33.60;;;21.90;;
57313;SDS011;53202;50.976;18.216;2022-09-13T03:48:42;37.60;;;29.00;;
57313;SDS011;53202;50.976;18.216;2022-09-13T03:51:08;34.80;;;21.80;;
57313;SDS011;53202;50.976;18.216;2022-09-13T03:53:38;27.20;;;20.60;;
57313;SDS011;53202;50.976;18.216;2022-09-13T03:56:11;27.10;;;19.50;;
57313;SDS011;53202;50.976;18.216;2022-09-13T03:58:39;22.80;;;19.30;;
57313;SDS011;53202;50.976;18.216;2022-09-13T04:01:05;22.80;;;18.00;;
57313;SDS011;53202;50.976;18.216;2022-09-13T04:03:31;22.70;;;18.50;;
57313;SDS011;53202;50.976;18.216;2022-09-13T04:05:57;22.40;;;16.90;;
57313;SDS011;53202;50.976;18.216;2022-09-13T04:08:23;25.40;;;19.10;;
57313;SDS011;53202;50.976;18.216;2022-09-13T04:10:49;22.90;;;18.90;;
57313;SDS011;53202;50.976;18.216;2022-09-13T04:13:16;21.30;;;17.60;;
57313;SDS011;53202;50.976;18.216;2022-09-13T04:15:42;20.20;;;17.10;;
57313;SDS011;53202;50.976;18.216;2022-09-13T04:18:08;22.60;;;17.90;;
57313;SDS011;53202;50.976;18.216;2022-09-13T04:20:35;20.20;;;16.80;;
57313;SDS011;53202;50.976;18.216;2022-09-13T04:23:01;19.60;;;16.60;;
57313;SDS011;53202;50.976;18.216;2022-09-13T04:25:27;20.60;;;17.10;;
57313;SDS011;53202;50.976;18.216;2022-09-13T04:27:53;17.30;;;14.90;;
57313;SDS011;53202;50.976;18.216;2022-09-13T04:30:20;16.80;;;15.00;;
57313;SDS011;53202;50.976;18.216;2022-09-13T04:32:47;17.80;;;15.20;;
57313;SDS011;53202;50.976;18.216;2022-09-13T04:35:13;18.10;;;14.60;;
57313;SDS011;53202;50.976;18.216;2022-09-13T04:37:42;18.30;;;14.50;;
57313;SDS011;53202;50.976;18.216;2022-09-13T04:40:08;16.20;;;14.50;;
57313;SDS011;53202;50.976;18.216;2022-09-13T04:42:35;15.90;;;14.20;;
57313;SDS011;53202;50.976;18.216;2022-09-13T04:45:01;17.20;;;15.40;;
57313;SDS011;53202;50.976;18.216;2022-09-13T04:47:27;18.60;;;16.50;;
57313;SDS011;53202;50.976;18.216;2022-09-13T04:49:54;17.80;;;13.70;;
57313;SDS011;53202;50.976;18.216;2022-09-13T04:52:19;16.80;;;15.00;;
57313;SDS011;53202;50.976;18.216;2022-09-13T04:54:46;22.60;;;15.80;;
57313;SDS011;53202;50.976;18.216;2022-09-13T04:57:13;20.70;;;14.70;;
57313;SDS011;53202;50.976;18.216;2022-09-13T04:59:41;17.20;;;15.40;;
57313;SDS011;53202;50.976;18.216;2022-09-13T05:02:08;16.00;;;14.00;;
57313;SDS011;53202;50.976;18.216;2022-09-13T05:04:34;16.00;;;13.10;;
57313;SDS011;53202;50.976;18.216;2022-09-13T05:07:00;15.40;;;13.70;;
57313;SDS011;53202;50.976;18.216;2022-09-13T05:09:26;16.40;;;13.60;;
57313;SDS011;53202;50.976;18.216;2022-09-13T05:11:52;14.40;;;13.00;;
57313;SDS011;53202;50.976;18.216;2022-09-13T05:14:18;14.50;;;13.00;;
57313;SDS011;53202;50.976;18.216;2022-09-13T05:16:46;18.80;;;12.90;;
57313;SDS011;53202;50.976;18.216;2022-09-13T05:19:12;16.70;;;14.80;;
57313;SDS011;53202;50.976;18.216;2022-09-13T05:21:39;16.50;;;13.10;;
57313;SDS011;53202;50.976;18.216;2022-09-13T05:24:05;16.80;;;13.50;;
57313;SDS011;53202;50.976;18.216;2022-09-13T05:26:31;21.70;;;13.90;;
57313;SDS011;53202;50.976;18.216;2022-09-13T05:28:57;19.20;;;14.70;;
57313;SDS011;53202;50.976;18.216;2022-09-13T05:31:26;23.10;;;15.90;;
57313;SDS011;53202;50.976;18.216;2022-09-13T05:33:56;21.80;;;16.80;;
57313;SDS011;53202;50.976;18.216;2022-09-13T05:36:23;17.30;;;13.40;;
57313;SDS011;53202;50.976;18.216;2022-09-13T05:38:51;14.50;;;13.00;;
57313;SDS011;53202;50.976;18.216;2022-09-13T05:41:18;18.00;;;14.40;;
57313;SDS011;53202;50.976;18.216;2022-09-13T05:43:44;16.30;;;12.10;;
57313;SDS011;53202;50.976;18.216;2022-09-13T05:46:11;13.40;;;10.80;;
57313;SDS011;53202;50.976;18.216;2022-09-13T05:48:39;18.40;;;11.40;;
57313;SDS011;53202;50.976;18.216;2022-09-13T05:51:11;21.50;;;12.10;;
57313;SDS011;53202;50.976;18.216;2022-09-13T05:53:39;14.10;;;11.70;;
57313;SDS011;53202;50.976;18.216;2022-09-13T05:56:06;17.90;;;11.30;;
57313;SDS011;53202;50.976;18.216;2022-09-13T05:58:33;14.90;;;13.40;;
57313;SDS011;53202;50.976;18.216;2022-09-13T06:01:00;16.70;;;13.20;;
57313;SDS011;53202;50.976;18.216;2022-09-13T06:03:26;14.30;;;11.70;;
57313;SDS011;53202;50.976;18.216;2022-09-13T06:05:53;14.40;;;11.40;;
57313;SDS011;53202;50.976;18.216;2022-09-13T06:08:21;17.10;;;10.90;;
57313;SDS011;53202;50.976;18.216;2022-09-13T06:10:56;13.60;;;10.20;;
57313;SDS011;53202;50.976;18.216;2022-09-13T06:13:23;15.00;;;10.00;;
57313;SDS011;53202;50.976;18.216;2022-09-13T06:15:50;13.10;;;10.60;;
57313;SDS011;53202;50.976;18.216;2022-09-13T06:18:16;10.90;;;9.60;;
57313;SDS011;53202;50.976;18.216;2022-09-13T06:20:44;17.80;;;9.60;;
57313;SDS011;53202;50.976;18.216;2022-09-13T06:23:10;11.70;;;9.30;;
57313;SDS011;53202;50.976;18.216;2022-09-13T06:25:36;13.10;;;9.60;;
57313;SDS011;53202;50.976;18.216;2022-09-13T06:28:02;10.90;;;9.30;;
57313;SDS011;53202;50.976;18.216;2022-09-13T06:30:29;13.70;;;9.90;;
57313;SDS011;53202;50.976;18.216;2022-09-13T06:32:55;22.20;;;10.60;;
57313;SDS011;53202;50.976;18.216;2022-09-13T06:35:22;12.60;;;9.10;;
57313;SDS011;53202;50.976;18.216;2022-09-13T06:37:48;13.70;;;10.10;;
57313;SDS011;53202;50.976;18.216;2022-09-13T06:40:14;14.40;;;10.80;;
57313;SDS011;53202;50.976;18.216;2022-09-13T06:42:41;14.70;;;9.80;;
57313;SDS011;53202;50.976;18.216;2022-09-13T06:45:07;11.60;;;10.20;;
57313;SDS011;53202;50.976;18.216;2022-09-13T06:47:34;12.50;;;11.00;;
57313;SDS011;53202;50.976;18.216;2022-09-13T06:50:00;11.90;;;10.50;;
57313;SDS011;53202;50.976;18.216;2022-09-13T06:52:26;14.50;;;10.20;;
57313;SDS011;53202;50.976;18.216;2022-09-13T06:54:53;18.00;;;10.90;;
57313;SDS011;53202;50.976;18.216;2022-09-13T06:57:19;13.50;;;10.60;;
57313;SDS011;53202;50.976;18.216;2022-09-13T06:59:45;13.50;;;10.70;;
57313;SDS011;53202;50.976;18.216;2022-09-13T07:02:11;11.90;;;9.30;;
57313;SDS011;53202;50.976;18.216;2022-09-13T07:04:38;12.30;;;9.60;;
57313;SDS011;53202;50.976;18.216;2022-09-13T07:07:04;11.80;;;9.20;;
57313;SDS011;53202;50.976;18.216;2022-09-13T07:09:30;11.50;;;9.00;;
57313;SDS011;53202;50.976;18.216;2022-09-13T07:11:58;11.20;;;8.50;;
57313;SDS011;53202;50.976;18.216;2022-09-13T07:14:26;11.40;;;8.50;;
57313;SDS011;53202;50.976;18.216;2022-09-13T07:16:53;11.70;;;7.30;;
57313;SDS011;53202;50.976;18.216;2022-09-13T07:19:20;10.20;;;7.50;;
57313;SDS011;53202;50.976;18.216;2022-09-13T07:21:47;8.70;;;7.20;;
57313;SDS011;53202;50.976;18.216;2022-09-13T07:24:14;10.60;;;7.40;;
57313;SDS011;53202;50.976;18.216;2022-09-13T07:26:41;12.10;;;7.00;;
57313;SDS011;53202;50.976;18.216;2022-09-13T07:29:10;14.10;;;7.90;;
57313;SDS011;53202;50.976;18.216;2022-09-13T07:31:40;8.60;;;7.20;;
57313;SDS011;53202;50.976;18.216;2022-09-13T07:34:11;9.30;;;7.60;;
57313;SDS011;53202;50.976;18.216;2022-09-13T07:36:39;9.50;;;7.70;;
57313;SDS011;53202;50.976;18.216;2022-09-13T07:39:05;12.90;;;8.50;;
57313;SDS011;53202;50.976;18.216;2022-09-13T07:41:32;9.40;;;6.70;;
57313;SDS011;53202;50.976;18.216;2022-09-13T07:43:59;10.10;;;7.50;;
57313;SDS011;53202;50.976;18.216;2022-09-13T07:46:27;10.60;;;7.70;;
57313;SDS011;53202;50.976;18.216;2022-09-13T07:48:58;12.70;;;7.50;;
57313;SDS011;53202;50.976;18.216;2022-09-13T07:51:26;10.00;;;7.80;;
57313;SDS011;53202;50.976;18.216;2022-09-13T07:53:55;10.20;;;8.30;;
57313;SDS011;53202;50.976;18.216;2022-09-13T07:56:24;14.10;;;7.20;;
57313;SDS011;53202;50.976;18.216;2022-09-13T07:58:53;7.80;;;6.60;;
57313;SDS011;53202;50.976;18.216;2022-09-13T08:01:20;12.40;;;6.70;;
57313;SDS011;53202;50.976;18.216;2022-09-13T08:03:52;10.30;;;6.10;;
57313;SDS011;53202;50.976;18.216;2022-09-13T08:06:20;12.40;;;6.60;;
57313;SDS011;53202;50.976;18.216;2022-09-13T08:08:47;11.20;;;6.20;;
57313;SDS011;53202;50.976;18.216;2022-09-13T08:11:16;9.80;;;6.20;;
57313;SDS011;53202;50.976;18.216;2022-09-13T08:13:46;11.00;;;6.40;;
57313;SDS011;53202;50.976;18.216;2022-09-13T08:16:13;8.10;;;5.60;;
57313;SDS011;53202;50.976;18.216;2022-09-13T08:18:47;8.10;;;5.60;;
57313;SDS011;53202;50.976;18.216;2022-09-13T08:21:14;14.10;;;6.60;;
57313;SDS011;53202;50.976;18.216;2022-09-13T08:23:40;8.60;;;5.10;;
57313;SDS011;53202;50.976;18.216;2022-09-13T08:26:07;8.00;;;5.50;;
57313;SDS011;53202;50.976;18.216;2022-09-13T08:28:34;9.40;;;5.40;;
57313;SDS011;53202;50.976;18.216;2022-09-13T08:33:42;9.30;;;5.50;;
57313;SDS011;53202;50.976;18.216;2022-09-13T08:36:10;7.90;;;5.20;;
57313;SDS011;53202;50.976;18.216;2022-09-13T08:38:36;8.60;;;5.10;;
57313;SDS011;53202;50.976;18.216;2022-09-13T08:41:03;8.70;;;5.10;;
57313;SDS011;53202;50.976;18.216;2022-09-13T08:43:50;11.10;;;4.80;;
57313;SDS011;53202;50.976;18.216;2022-09-13T08:46:23;7.20;;;4.80;;
57313;SDS011;53202;50.976;18.216;2022-09-13T08:48:54;8.30;;;5.20;;
57313;SDS011;53202;50.976;18.216;2022-09-13T08:51:27;7.20;;;5.00;;
57313;SDS011;53202;50.976;18.216;2022-09-13T08:53:56;6.40;;;4.40;;
57313;SDS011;53202;50.976;18.216;2022-09-13T08:56:28;8.70;;;4.30;;
57313;SDS011;53202;50.976;18.216;2022-09-13T09:02:09;5.70;;;4.40;;
57313;SDS011;53202;50.976;18.216;2022-09-13T09:05:02;6.50;;;4.90;;
57313;SDS011;53202;50.976;18.216;2022-09-13T09:07:36;8.40;;;5.60;;
57313;SDS011;53202;50.976;18.216;2022-09-13T09:10:10;6.90;;;4.90;;
57313;SDS011;53202;50.976;18.216;2022-09-13T09:12:45;8.50;;;5.50;;
57313;SDS011;53202;50.976;18.216;2022-09-13T09:15:21;5.70;;;4.20;;
57313;SDS011;53202;50.976;18.216;2022-09-13T09:17:53;7.70;;;5.20;;
57313;SDS011;53202;50.976;18.216;2022-09-13T09:20:26;6.00;;;4.40;;
57313;SDS011;53202;50.976;18.216;2022-09-13T09:22:58;6.90;;;5.20;;
57313;SDS011;53202;50.976;18.216;2022-09-13T09:25:26;10.30;;;4.90;;
57313;SDS011;53202;50.976;18.216;2022-09-13T09:27:54;6.90;;;4.40;;
57313;SDS011;53202;50.976;18.216;2022-09-13T09:30:21;10.70;;;4.70;;
57313;SDS011;53202;50.976;18.216;2022-09-13T09:35:41;5.70;;;4.90;;
57313;SDS011;53202;50.976;18.216;2022-09-13T09:38:31;7.20;;;3.90;;
57313;SDS011;53202;50.976;18.216;2022-09-13T09:41:10;6.10;;;4.60;;
57313;SDS011;53202;50.976;18.216;2022-09-13T09:43:41;6.50;;;4.30;;
57313;SDS011;53202;50.976;18.216;2022-09-13T09:46:11;7.60;;;4.50;;
57313;SDS011;53202;50.976;18.216;2022-09-13T09:48:42;8.40;;;4.10;;
57313;SDS011;53202;50.976;18.216;2022-09-13T09:51:10;6.40;;;3.90;;
57313;SDS011;53202;50.976;18.216;2022-09-13T09:53:40;5.70;;;3.80;;
57313;SDS011;53202;50.976;18.216;2022-09-13T09:56:14;9.90;;;3.70;;
57313;SDS011;53202;50.976;18.216;2022-09-13T09:58:51;6.50;;;4.00;;
57313;SDS011;53202;50.976;18.216;2022-09-13T10:01:23;9.30;;;4.00;;
57313;SDS011;53202;50.976;18.216;2022-09-13T10:03:53;4.30;;;3.50;;
57313;SDS011;53202;50.976;18.216;2022-09-13T10:06:28;5.80;;;3.80;;
57313;SDS011;53202;50.976;18.216;2022-09-13T10:08:56;8.90;;;4.10;;
57313;SDS011;53202;50.976;18.216;2022-09-13T10:11:37;6.70;;;3.50;;
57313;SDS011;53202;50.976;18.216;2022-09-13T10:19:51;7.00;;;3.80;;
57313;SDS011;53202;50.976;18.216;2022-09-13T10:22:26;9.80;;;4.70;;
57313;SDS011;53202;50.976;18.216;2022-09-13T10:25:14;19.30;;;4.10;;
57313;SDS011;53202;50.976;18.216;2022-09-13T10:27:48;9.50;;;4.30;;
57313;SDS011;53202;50.976;18.216;2022-09-13T10:30:29;11.90;;;4.50;;
57313;SDS011;53202;50.976;18.216;2022-09-13T10:32:58;7.60;;;3.80;;
57313;SDS011;53202;50.976;18.216;2022-09-13T10:35:24;8.60;;;3.10;;
57313;SDS011;53202;50.976;18.216;2022-09-13T10:37:50;9.90;;;4.90;;
57313;SDS011;53202;50.976;18.216;2022-09-13T10:40:18;6.40;;;3.80;;
57313;SDS011;53202;50.976;18.216;2022-09-13T10:42:55;7.00;;;3.90;;
57313;SDS011;53202;50.976;18.216;2022-09-13T10:45:26;5.70;;;3.30;;
57313;SDS011;53202;50.976;18.216;2022-09-13T10:47:57;9.40;;;5.20;;
57313;SDS011;53202;50.976;18.216;2022-09-13T10:50:28;8.60;;;6.20;;
57313;SDS011;53202;50.976;18.216;2022-09-13T10:52:57;15.40;;;4.30;;
57313;SDS011;53202;50.976;18.216;2022-09-13T10:55:25;6.50;;;3.80;;
57313;SDS011;53202;50.976;18.216;2022-09-13T10:57:54;14.60;;;4.20;;
57313;SDS011;53202;50.976;18.216;2022-09-13T11:00:51;4.90;;;4.00;;
57313;SDS011;53202;50.976;18.216;2022-09-13T11:03:31;11.40;;;4.50;;
57313;SDS011;53202;50.976;18.216;2022-09-13T11:06:10;8.70;;;3.90;;
57313;SDS011;53202;50.976;18.216;2022-09-13T11:17:25;11.90;;;4.20;;
57313;SDS011;53202;50.976;18.216;2022-09-13T11:20:12;11.50;;;4.20;;
57313;SDS011;53202;50.976;18.216;2022-09-13T11:25:50;10.80;;;3.80;;
57313;SDS011;53202;50.976;18.216;2022-09-13T11:31:26;9.10;;;4.30;;
57313;SDS011;53202;50.976;18.216;2022-09-13T11:39:58;9.80;;;3.30;;
57313;SDS011;53202;50.976;18.216;2022-09-13T11:42:44;5.90;;;3.70;;
57313;SDS011;53202;50.976;18.216;2022-09-13T11:48:24;5.10;;;3.60;;
57313;SDS011;53202;50.976;18.216;2022-09-13T11:51:03;4.70;;;3.20;;
57313;SDS011;53202;50.976;18.216;2022-09-13T11:56:37;4.20;;;3.50;;
57313;SDS011;53202;50.976;18.216;2022-09-13T11:59:14;6.90;;;3.40;;
57313;SDS011;53202;50.976;18.216;2022-09-13T12:01:48;5.90;;;3.60;;
57313;SDS011;53202;50.976;18.216;2022-09-13T12:04:22;8.30;;;3.60;;
57313;SDS011;53202;50.976;18.216;2022-09-13T12:06:54;7.80;;;3.10;;
57313;SDS011;53202;50.976;18.216;2022-09-13T12:09:26;6.00;;;3.30;;
57313;SDS011;53202;50.976;18.216;2022-09-13T12:12:02;5.10;;;3.40;;
57313;SDS011;53202;50.976;18.216;2022-09-13T12:14:33;6.30;;;3.40;;
57313;SDS011;53202;50.976;18.216;2022-09-13T12:17:11;4.90;;;3.40;;
57313;SDS011;53202;50.976;18.216;2022-09-13T12:19:48;3.80;;;3.20;;
57313;SDS011;53202;50.976;18.216;2022-09-13T12:22:16;4.20;;;3.30;;
57313;SDS011;53202;50.976;18.216;2022-09-13T12:24:44;4.90;;;3.60;;
57313;SDS011;53202;50.976;18.216;2022-09-13T12:27:30;13.20;;;3.20;;
57313;SDS011;53202;50.976;18.216;2022-09-13T12:30:08;8.70;;;3.10;;
57313;SDS011;53202;50.976;18.216;2022-09-13T12:32:41;7.30;;;3.30;;
57313;SDS011;53202;50.976;18.216;2022-09-13T12:35:16;3.80;;;2.30;;
57313;SDS011;53202;50.976;18.216;2022-09-13T12:38:03;3.70;;;2.80;;
57313;SDS011;53202;50.976;18.216;2022-09-13T12:43:29;4.80;;;3.00;;
57313;SDS011;53202;50.976;18.216;2022-09-13T12:49:09;6.30;;;2.80;;
57313;SDS011;53202;50.976;18.216;2022-09-13T12:51:56;6.70;;;2.80;;
57313;SDS011;53202;50.976;18.216;2022-09-13T12:54:35;6.80;;;3.30;;
57313;SDS011;53202;50.976;18.216;2022-09-13T12:57:23;6.80;;;3.20;;
57313;SDS011;53202;50.976;18.216;2022-09-13T13:00:16;3.70;;;2.40;;
57313;SDS011;53202;50.976;18.216;2022-09-13T13:02:59;6.20;;;3.00;;
57313;SDS011;53202;50.976;18.216;2022-09-13T13:05:39;3.80;;;2.70;;
57313;SDS011;53202;50.976;18.216;2022-09-13T13:08:20;4.50;;;2.90;;
57313;SDS011;53202;50.976;18.216;2022-09-13T13:13:35;5.00;;;2.90;;
57313;SDS011;53202;50.976;18.216;2022-09-13T13:16:06;5.30;;;2.90;;
57313;SDS011;53202;50.976;18.216;2022-09-13T13:18:48;5.00;;;2.60;;
57313;SDS011;53202;50.976;18.216;2022-09-13T13:21:21;5.90;;;2.40;;
57313;SDS011;53202;50.976;18.216;2022-09-13T13:26:51;6.00;;;3.20;;
57313;SDS011;53202;50.976;18.216;2022-09-13T13:29:20;5.00;;;2.60;;
57313;SDS011;53202;50.976;18.216;2022-09-13T13:32:04;9.50;;;3.60;;
57313;SDS011;53202;50.976;18.216;2022-09-13T13:34:37;6.20;;;3.10;;
57313;SDS011;53202;50.976;18.216;2022-09-13T13:37:25;5.90;;;3.10;;
57313;SDS011;53202;50.976;18.216;2022-09-13T13:40:27;4.20;;;2.80;;
57313;SDS011;53202;50.976;18.216;2022-09-13T13:45:56;4.70;;;2.80;;
57313;SDS011;53202;50.976;18.216;2022-09-13T13:53:48;4.10;;;3.00;;
57313;SDS011;53202;50.976;18.216;2022-09-13T13:56:19;9.10;;;2.90;;
57313;SDS011;53202;50.976;18.216;2022-09-13T13:58:49;7.60;;;3.40;;
57313;SDS011;53202;50.976;18.216;2022-09-13T14:01:23;3.80;;;2.70;;
57313;SDS011;53202;50.976;18.216;2022-09-13T14:04:04;6.20;;;3.50;;
57313;SDS011;53202;50.976;18.216;2022-09-13T14:12:20;6.10;;;3.30;;
57313;SDS011;53202;50.976;18.216;2022-09-13T14:15:00;4.50;;;3.20;;
57313;SDS011;53202;50.976;18.216;2022-09-13T14:20:23;5.10;;;3.40;;
57313;SDS011;53202;50.976;18.216;2022-09-13T14:22:50;6.00;;;3.20;;
57313;SDS011;53202;50.976;18.216;2022-09-13T14:25:22;9.10;;;3.20;;
57313;SDS011;53202;50.976;18.216;2022-09-13T14:27:49;5.20;;;2.40;;
57313;SDS011;53202;50.976;18.216;2022-09-13T14:30:19;5.00;;;3.00;;
57313;SDS011;53202;50.976;18.216;2022-09-13T14:32:49;5.50;;;2.70;;
57313;SDS011;53202;50.976;18.216;2022-09-13T14:40:48;5.00;;;3.00;;
57313;SDS011;53202;50.976;18.216;2022-09-13T14:43:18;8.50;;;3.00;;
57313;SDS011;53202;50.976;18.216;2022-09-13T14:45:46;5.10;;;3.10;;
57313;SDS011;53202;50.976;18.216;2022-09-13T14:48:17;5.10;;;3.00;;
57313;SDS011;53202;50.976;18.216;2022-09-13T14:50:55;4.70;;;3.20;;
57313;SDS011;53202;50.976;18.216;2022-09-13T14:53:24;6.30;;;3.40;;
57313;SDS011;53202;50.976;18.216;2022-09-13T14:55:54;8.00;;;3.30;;
57313;SDS011;53202;50.976;18.216;2022-09-13T14:58:25;9.00;;;3.20;;
57313;SDS011;53202;50.976;18.216;2022-09-13T15:00:55;5.10;;;3.60;;
57313;SDS011;53202;50.976;18.216;2022-09-13T15:03:23;6.70;;;3.60;;
57313;SDS011;53202;50.976;18.216;2022-09-13T15:05:52;5.00;;;3.70;;
57313;SDS011;53202;50.976;18.216;2022-09-13T15:08:34;8.70;;;4.30;;
57313;SDS011;53202;50.976;18.216;2022-09-13T15:11:11;6.30;;;3.50;;
57313;SDS011;53202;50.976;18.216;2022-09-13T15:13:40;7.20;;;3.70;;
57313;SDS011;53202;50.976;18.216;2022-09-13T15:21:35;4.60;;;3.60;;
57313;SDS011;53202;50.976;18.216;2022-09-13T15:24:01;7.20;;;4.30;;
57313;SDS011;53202;50.976;18.216;2022-09-13T15:26:27;4.90;;;3.50;;
57313;SDS011;53202;50.976;18.216;2022-09-13T15:28:54;4.30;;;3.60;;
57313;SDS011;53202;50.976;18.216;2022-09-13T15:31:23;7.60;;;4.60;;
57313;SDS011;53202;50.976;18.216;2022-09-13T15:39:41;5.80;;;4.00;;
57313;SDS011;53202;50.976;18.216;2022-09-13T15:42:08;5.20;;;3.70;;
57313;SDS011;53202;50.976;18.216;2022-09-13T15:44:34;6.10;;;3.70;;
57313;SDS011;53202;50.976;18.216;2022-09-13T15:47:00;5.30;;;4.40;;
57313;SDS011;53202;50.976;18.216;2022-09-13T15:49:29;7.10;;;4.30;;
57313;SDS011;53202;50.976;18.216;2022-09-13T15:51:57;4.60;;;4.10;;
57313;SDS011;53202;50.976;18.216;2022-09-13T15:54:31;5.20;;;3.40;;
57313;SDS011;53202;50.976;18.216;2022-09-13T15:56:58;8.20;;;3.80;;
57313;SDS011;53202;50.976;18.216;2022-09-13T15:59:24;6.30;;;4.20;;
57313;SDS011;53202;50.976;18.216;2022-09-13T16:01:54;4.90;;;3.90;;
57313;SDS011;53202;50.976;18.216;2022-09-13T16:04:21;5.80;;;4.30;;
57313;SDS011;53202;50.976;18.216;2022-09-13T16:06:48;8.10;;;4.70;;
57313;SDS011;53202;50.976;18.216;2022-09-13T16:09:15;6.10;;;4.30;;
57313;SDS011;53202;50.976;18.216;2022-09-13T16:11:44;8.00;;;4.70;;
57313;SDS011;53202;50.976;18.216;2022-09-13T16:14:11;10.00;;;5.50;;
57313;SDS011;53202;50.976;18.216;2022-09-13T16:16:37;13.20;;;6.50;;
57313;SDS011;53202;50.976;18.216;2022-09-13T16:19:03;17.10;;;10.80;;
57313;SDS011;53202;50.976;18.216;2022-09-13T16:21:29;15.10;;;11.20;;
57313;SDS011;53202;50.976;18.216;2022-09-13T16:23:55;9.50;;;5.70;;
57313;SDS011;53202;50.976;18.216;2022-09-13T16:26:21;8.60;;;5.00;;
57313;SDS011;53202;50.976;18.216;2022-09-13T16:28:49;10.70;;;5.70;;
57313;SDS011;53202;50.976;18.216;2022-09-13T16:31:15;5.90;;;5.20;;
57313;SDS011;53202;50.976;18.216;2022-09-13T16:33:41;9.10;;;4.80;;
57313;SDS011;53202;50.976;18.216;2022-09-13T16:36:10;16.40;;;4.90;;